sensor_id;sensor_type;location;lat;lon;timestamp;P1;durP1;ratioP1;P2;durP2;ratioP2
64682;SDS011;51107;47.652;19.016;2023-12-29T00:02:05;8.68;;;4.45;;
64682;SDS011;51107;47.652;19.016;2023-12-29T00:04:34;12.25;;;4.80;;
64682;SDS011;51107;47.652;19.016;2023-12-29T00:07:02;9.35;;;4.45;;
64682;SDS011;51107;47.652;19.016;2023-12-29T00:09:30;18.05;;;4.47;;
64682;SDS011;51107;47.652;19.016;2023-12-29T00:12:06;13.65;;;6.80;;
64682;SDS011;51107;47.652;19.016;2023-12-29T00:14:41;8.23;;;4.45;;
64682;SDS011;51107;47.652;19.016;2023-12-29T00:17:10;10.77;;;4.43;;
64682;SDS011;51107;47.652;19.016;2023-12-29T00:19:38;17.25;;;5.43;;
64682;SDS011;51107;47.652;19.016;2023-12-29T00:22:07;7.82;;;3.65;;
64682;SDS011;51107;47.652;19.016;2023-12-29T00:24:35;7.25;;;3.87;;
64682;SDS011;51107;47.652;19.016;2023-12-29T00:27:03;9.27;;;4.70;;
64682;SDS011;51107;47.652;19.016;2023-12-29T00:29:31;10.38;;;5.43;;
64682;SDS011;51107;47.652;19.016;2023-12-29T00:32:02;16.70;;;3.75;;
64682;SDS011;51107;47.652;19.016;2023-12-29T00:34:31;8.75;;;4.82;;
64682;SDS011;51107;47.652;19.016;2023-12-29T00:37:01;8.77;;;4.07;;
64682;SDS011;51107;47.652;19.016;2023-12-29T00:39:30;11.63;;;4.20;;
64682;SDS011;51107;47.652;19.016;2023-12-29T00:41:59;7.85;;;4.03;;
64682;SDS011;51107;47.652;19.016;2023-12-29T00:44:27;6.32;;;4.00;;
64682;SDS011;51107;47.652;19.016;2023-12-29T00:46:57;7.97;;;4.30;;
64682;SDS011;51107;47.652;19.016;2023-12-29T00:49:28;13.45;;;5.30;;
64682;SDS011;51107;47.652;19.016;2023-12-29T00:51:56;10.73;;;4.03;;
64682;SDS011;51107;47.652;19.016;2023-12-29T00:54:24;8.45;;;3.92;;
64682;SDS011;51107;47.652;19.016;2023-12-29T00:56:57;8.85;;;4.00;;
64682;SDS011;51107;47.652;19.016;2023-12-29T00:59:25;4.87;;;3.47;;
64682;SDS011;51107;47.652;19.016;2023-12-29T01:01:52;15.82;;;4.37;;
64682;SDS011;51107;47.652;19.016;2023-12-29T01:04:21;11.70;;;6.57;;
64682;SDS011;51107;47.652;19.016;2023-12-29T01:06:49;17.00;;;6.68;;
64682;SDS011;51107;47.652;19.016;2023-12-29T01:09:17;11.20;;;6.00;;
64682;SDS011;51107;47.652;19.016;2023-12-29T01:11:45;15.07;;;5.95;;
64682;SDS011;51107;47.652;19.016;2023-12-29T01:14:13;12.05;;;5.53;;
64682;SDS011;51107;47.652;19.016;2023-12-29T01:16:42;8.52;;;4.90;;
64682;SDS011;51107;47.652;19.016;2023-12-29T01:19:10;10.85;;;4.03;;
64682;SDS011;51107;47.652;19.016;2023-12-29T01:21:38;7.00;;;3.67;;
64682;SDS011;51107;47.652;19.016;2023-12-29T01:24:06;8.15;;;4.10;;
64682;SDS011;51107;47.652;19.016;2023-12-29T01:26:38;9.27;;;4.32;;
64682;SDS011;51107;47.652;19.016;2023-12-29T01:29:06;6.87;;;3.65;;
64682;SDS011;51107;47.652;19.016;2023-12-29T01:31:35;12.45;;;4.65;;
64682;SDS011;51107;47.652;19.016;2023-12-29T01:34:03;13.45;;;5.78;;
64682;SDS011;51107;47.652;19.016;2023-12-29T01:36:34;6.57;;;3.65;;
64682;SDS011;51107;47.652;19.016;2023-12-29T01:39:02;8.18;;;4.95;;
64682;SDS011;51107;47.652;19.016;2023-12-29T01:41:30;9.45;;;4.87;;
64682;SDS011;51107;47.652;19.016;2023-12-29T01:46:28;5.68;;;3.60;;
64682;SDS011;51107;47.652;19.016;2023-12-29T01:48:58;15.07;;;4.18;;
64682;SDS011;51107;47.652;19.016;2023-12-29T01:51:27;9.23;;;4.53;;
64682;SDS011;51107;47.652;19.016;2023-12-29T01:53:58;8.98;;;4.85;;
64682;SDS011;51107;47.652;19.016;2023-12-29T01:56:26;8.73;;;4.07;;
64682;SDS011;51107;47.652;19.016;2023-12-29T01:58:55;21.37;;;6.60;;
64682;SDS011;51107;47.652;19.016;2023-12-29T02:01:35;16.60;;;7.10;;
64682;SDS011;51107;47.652;19.016;2023-12-29T02:04:07;8.85;;;5.40;;
64682;SDS011;51107;47.652;19.016;2023-12-29T02:06:35;10.25;;;5.10;;
64682;SDS011;51107;47.652;19.016;2023-12-29T02:09:05;13.10;;;5.12;;
64682;SDS011;51107;47.652;19.016;2023-12-29T02:11:33;6.72;;;3.40;;
64682;SDS011;51107;47.652;19.016;2023-12-29T02:14:02;13.85;;;6.30;;
64682;SDS011;51107;47.652;19.016;2023-12-29T02:16:35;6.80;;;3.90;;
64682;SDS011;51107;47.652;19.016;2023-12-29T02:19:58;8.27;;;4.30;;
64682;SDS011;51107;47.652;19.016;2023-12-29T02:22:12;6.03;;;3.15;;
64682;SDS011;51107;47.652;19.016;2023-12-29T02:24:59;8.82;;;4.18;;
64682;SDS011;51107;47.652;19.016;2023-12-29T02:27:37;9.93;;;3.60;;
64682;SDS011;51107;47.652;19.016;2023-12-29T02:33:13;8.10;;;4.95;;
64682;SDS011;51107;47.652;19.016;2023-12-29T02:38:16;7.68;;;3.75;;
64682;SDS011;51107;47.652;19.016;2023-12-29T02:40:45;7.00;;;4.00;;
64682;SDS011;51107;47.652;19.016;2023-12-29T02:43:15;10.77;;;4.40;;
64682;SDS011;51107;47.652;19.016;2023-12-29T02:45:43;9.50;;;4.47;;
64682;SDS011;51107;47.652;19.016;2023-12-29T02:48:11;7.87;;;4.47;;
64682;SDS011;51107;47.652;19.016;2023-12-29T02:50:40;18.33;;;6.37;;
64682;SDS011;51107;47.652;19.016;2023-12-29T02:53:08;27.95;;;9.02;;
64682;SDS011;51107;47.652;19.016;2023-12-29T02:55:36;27.30;;;11.50;;
64682;SDS011;51107;47.652;19.016;2023-12-29T02:58:05;17.92;;;6.72;;
64682;SDS011;51107;47.652;19.016;2023-12-29T03:00:33;12.35;;;5.53;;
64682;SDS011;51107;47.652;19.016;2023-12-29T03:03:02;12.27;;;5.55;;
64682;SDS011;51107;47.652;19.016;2023-12-29T03:05:30;13.90;;;5.32;;
64682;SDS011;51107;47.652;19.016;2023-12-29T03:07:58;13.90;;;6.75;;
64682;SDS011;51107;47.652;19.016;2023-12-29T03:10:27;13.35;;;5.53;;
64682;SDS011;51107;47.652;19.016;2023-12-29T03:12:54;11.25;;;4.70;;
64682;SDS011;51107;47.652;19.016;2023-12-29T03:15:23;17.55;;;6.82;;
64682;SDS011;51107;47.652;19.016;2023-12-29T03:17:51;13.55;;;4.37;;
64682;SDS011;51107;47.652;19.016;2023-12-29T03:20:19;10.50;;;4.75;;
64682;SDS011;51107;47.652;19.016;2023-12-29T03:22:47;8.95;;;4.62;;
64682;SDS011;51107;47.652;19.016;2023-12-29T03:25:15;8.35;;;4.47;;
64682;SDS011;51107;47.652;19.016;2023-12-29T03:27:44;10.75;;;6.30;;
64682;SDS011;51107;47.652;19.016;2023-12-29T03:30:12;10.13;;;3.85;;
64682;SDS011;51107;47.652;19.016;2023-12-29T03:32:43;8.57;;;4.05;;
64682;SDS011;51107;47.652;19.016;2023-12-29T03:35:11;6.28;;;3.08;;
64682;SDS011;51107;47.652;19.016;2023-12-29T03:37:39;9.98;;;4.20;;
64682;SDS011;51107;47.652;19.016;2023-12-29T03:40:08;8.80;;;4.25;;
64682;SDS011;51107;47.652;19.016;2023-12-29T03:42:37;11.27;;;4.45;;
64682;SDS011;51107;47.652;19.016;2023-12-29T03:45:07;13.38;;;6.32;;
64682;SDS011;51107;47.652;19.016;2023-12-29T03:47:38;20.17;;;5.30;;
64682;SDS011;51107;47.652;19.016;2023-12-29T03:50:06;10.25;;;5.62;;
64682;SDS011;51107;47.652;19.016;2023-12-29T03:52:35;18.48;;;5.43;;
64682;SDS011;51107;47.652;19.016;2023-12-29T03:55:04;10.48;;;5.32;;
64682;SDS011;51107;47.652;19.016;2023-12-29T03:57:33;13.90;;;4.80;;
64682;SDS011;51107;47.652;19.016;2023-12-29T04:00:01;10.68;;;5.75;;
64682;SDS011;51107;47.652;19.016;2023-12-29T04:02:38;9.95;;;4.85;;
64682;SDS011;51107;47.652;19.016;2023-12-29T04:05:08;9.10;;;5.15;;
64682;SDS011;51107;47.652;19.016;2023-12-29T04:07:38;12.13;;;5.68;;
64682;SDS011;51107;47.652;19.016;2023-12-29T04:10:08;10.43;;;5.05;;
64682;SDS011;51107;47.652;19.016;2023-12-29T04:12:37;11.75;;;5.85;;
64682;SDS011;51107;47.652;19.016;2023-12-29T04:15:05;10.65;;;5.75;;
64682;SDS011;51107;47.652;19.016;2023-12-29T04:17:34;7.72;;;4.05;;
64682;SDS011;51107;47.652;19.016;2023-12-29T04:20:02;14.65;;;5.78;;
64682;SDS011;51107;47.652;19.016;2023-12-29T04:22:30;11.80;;;5.10;;
64682;SDS011;51107;47.652;19.016;2023-12-29T04:24:59;7.45;;;4.72;;
64682;SDS011;51107;47.652;19.016;2023-12-29T04:27:27;20.92;;;4.55;;
64682;SDS011;51107;47.652;19.016;2023-12-29T04:29:55;7.93;;;3.92;;
64682;SDS011;51107;47.652;19.016;2023-12-29T04:32:23;11.12;;;5.78;;
64682;SDS011;51107;47.652;19.016;2023-12-29T04:34:51;12.65;;;5.37;;
64682;SDS011;51107;47.652;19.016;2023-12-29T04:37:19;6.82;;;4.03;;
64682;SDS011;51107;47.652;19.016;2023-12-29T04:39:47;7.72;;;4.28;;
64682;SDS011;51107;47.652;19.016;2023-12-29T04:42:15;8.57;;;4.28;;
64682;SDS011;51107;47.652;19.016;2023-12-29T04:44:45;14.02;;;4.80;;
64682;SDS011;51107;47.652;19.016;2023-12-29T04:47:14;9.18;;;5.57;;
64682;SDS011;51107;47.652;19.016;2023-12-29T04:49:42;14.40;;;6.57;;
64682;SDS011;51107;47.652;19.016;2023-12-29T04:52:10;11.40;;;6.22;;
64682;SDS011;51107;47.652;19.016;2023-12-29T04:54:38;16.67;;;6.82;;
64682;SDS011;51107;47.652;19.016;2023-12-29T04:57:06;10.75;;;5.57;;
64682;SDS011;51107;47.652;19.016;2023-12-29T04:59:34;12.65;;;5.80;;
64682;SDS011;51107;47.652;19.016;2023-12-29T05:02:02;8.55;;;5.12;;
64682;SDS011;51107;47.652;19.016;2023-12-29T05:04:30;17.15;;;5.97;;
64682;SDS011;51107;47.652;19.016;2023-12-29T05:06:59;13.48;;;6.78;;
64682;SDS011;51107;47.652;19.016;2023-12-29T05:09:27;14.05;;;5.57;;
64682;SDS011;51107;47.652;19.016;2023-12-29T05:11:55;9.23;;;5.07;;
64682;SDS011;51107;47.652;19.016;2023-12-29T05:14:23;12.18;;;5.95;;
64682;SDS011;51107;47.652;19.016;2023-12-29T05:16:51;19.42;;;7.57;;
64682;SDS011;51107;47.652;19.016;2023-12-29T05:19:19;12.32;;;5.37;;
64682;SDS011;51107;47.652;19.016;2023-12-29T05:21:47;12.55;;;4.60;;
64682;SDS011;51107;47.652;19.016;2023-12-29T05:24:19;14.02;;;6.40;;
64682;SDS011;51107;47.652;19.016;2023-12-29T05:26:47;17.50;;;7.70;;
64682;SDS011;51107;47.652;19.016;2023-12-29T05:29:15;15.57;;;7.82;;
64682;SDS011;51107;47.652;19.016;2023-12-29T05:31:43;12.82;;;7.03;;
64682;SDS011;51107;47.652;19.016;2023-12-29T05:34:11;10.88;;;5.47;;
64682;SDS011;51107;47.652;19.016;2023-12-29T05:36:39;17.67;;;7.35;;
64682;SDS011;51107;47.652;19.016;2023-12-29T05:39:10;16.33;;;6.28;;
64682;SDS011;51107;47.652;19.016;2023-12-29T05:41:38;15.00;;;6.40;;
64682;SDS011;51107;47.652;19.016;2023-12-29T05:44:06;8.80;;;5.70;;
64682;SDS011;51107;47.652;19.016;2023-12-29T05:46:34;21.30;;;7.30;;
64682;SDS011;51107;47.652;19.016;2023-12-29T05:49:02;10.88;;;6.40;;
64682;SDS011;51107;47.652;19.016;2023-12-29T05:51:30;19.12;;;6.97;;
64682;SDS011;51107;47.652;19.016;2023-12-29T05:53:58;14.55;;;6.87;;
64682;SDS011;51107;47.652;19.016;2023-12-29T05:56:26;19.12;;;6.93;;
64682;SDS011;51107;47.652;19.016;2023-12-29T05:58:54;25.27;;;11.85;;
64682;SDS011;51107;47.652;19.016;2023-12-29T06:01:23;19.17;;;9.05;;
64682;SDS011;51107;47.652;19.016;2023-12-29T06:03:51;19.35;;;9.55;;
64682;SDS011;51107;47.652;19.016;2023-12-29T06:06:19;24.20;;;8.95;;
64682;SDS011;51107;47.652;19.016;2023-12-29T06:08:48;16.50;;;8.10;;
64682;SDS011;51107;47.652;19.016;2023-12-29T06:11:16;20.80;;;8.13;;
64682;SDS011;51107;47.652;19.016;2023-12-29T06:13:44;15.57;;;7.78;;
64682;SDS011;51107;47.652;19.016;2023-12-29T06:16:19;12.52;;;6.43;;
64682;SDS011;51107;47.652;19.016;2023-12-29T06:18:48;11.98;;;6.53;;
64682;SDS011;51107;47.652;19.016;2023-12-29T06:21:18;15.57;;;6.95;;
64682;SDS011;51107;47.652;19.016;2023-12-29T06:23:48;13.52;;;7.10;;
64682;SDS011;51107;47.652;19.016;2023-12-29T06:26:18;18.33;;;7.53;;
64682;SDS011;51107;47.652;19.016;2023-12-29T06:28:47;12.15;;;6.57;;
64682;SDS011;51107;47.652;19.016;2023-12-29T06:31:17;9.90;;;5.87;;
64682;SDS011;51107;47.652;19.016;2023-12-29T06:33:48;21.83;;;10.38;;
64682;SDS011;51107;47.652;19.016;2023-12-29T06:36:17;21.70;;;9.07;;
64682;SDS011;51107;47.652;19.016;2023-12-29T06:38:47;17.58;;;8.70;;
64682;SDS011;51107;47.652;19.016;2023-12-29T06:41:17;21.45;;;12.80;;
64682;SDS011;51107;47.652;19.016;2023-12-29T06:43:45;23.92;;;10.10;;
64682;SDS011;51107;47.652;19.016;2023-12-29T06:46:14;13.13;;;7.47;;
64682;SDS011;51107;47.652;19.016;2023-12-29T06:48:42;13.95;;;6.15;;
64682;SDS011;51107;47.652;19.016;2023-12-29T06:51:15;10.60;;;5.85;;
64682;SDS011;51107;47.652;19.016;2023-12-29T06:53:46;18.00;;;7.10;;
64682;SDS011;51107;47.652;19.016;2023-12-29T06:56:15;14.68;;;5.80;;
64682;SDS011;51107;47.652;19.016;2023-12-29T06:58:43;13.88;;;6.68;;
64682;SDS011;51107;47.652;19.016;2023-12-29T07:01:12;20.10;;;6.45;;
64682;SDS011;51107;47.652;19.016;2023-12-29T07:03:40;12.40;;;5.97;;
64682;SDS011;51107;47.652;19.016;2023-12-29T07:06:10;12.45;;;6.10;;
64682;SDS011;51107;47.652;19.016;2023-12-29T07:08:38;14.77;;;6.65;;
64682;SDS011;51107;47.652;19.016;2023-12-29T07:11:11;13.48;;;7.65;;
64682;SDS011;51107;47.652;19.016;2023-12-29T07:13:41;13.75;;;7.40;;
64682;SDS011;51107;47.652;19.016;2023-12-29T07:16:09;16.35;;;7.43;;
64682;SDS011;51107;47.652;19.016;2023-12-29T07:18:38;11.23;;;4.72;;
64682;SDS011;51107;47.652;19.016;2023-12-29T07:21:07;12.40;;;7.05;;
64682;SDS011;51107;47.652;19.016;2023-12-29T07:23:35;13.38;;;6.75;;
64682;SDS011;51107;47.652;19.016;2023-12-29T07:26:04;11.52;;;6.50;;
64682;SDS011;51107;47.652;19.016;2023-12-29T07:28:32;9.30;;;5.15;;
64682;SDS011;51107;47.652;19.016;2023-12-29T07:31:01;11.70;;;5.57;;
64682;SDS011;51107;47.652;19.016;2023-12-29T07:33:30;13.13;;;6.87;;
64682;SDS011;51107;47.652;19.016;2023-12-29T07:35:59;15.27;;;6.12;;
64682;SDS011;51107;47.652;19.016;2023-12-29T07:38:28;11.90;;;6.87;;
64682;SDS011;51107;47.652;19.016;2023-12-29T07:40:56;10.88;;;5.15;;
64682;SDS011;51107;47.652;19.016;2023-12-29T07:43:25;12.98;;;7.05;;
64682;SDS011;51107;47.652;19.016;2023-12-29T07:45:53;14.15;;;5.93;;
64682;SDS011;51107;47.652;19.016;2023-12-29T07:48:21;18.08;;;4.95;;
64682;SDS011;51107;47.652;19.016;2023-12-29T07:50:51;11.45;;;4.97;;
64682;SDS011;51107;47.652;19.016;2023-12-29T07:53:19;20.58;;;7.95;;
64682;SDS011;51107;47.652;19.016;2023-12-29T07:55:48;15.30;;;7.90;;
64682;SDS011;51107;47.652;19.016;2023-12-29T07:58:18;13.77;;;7.47;;
64682;SDS011;51107;47.652;19.016;2023-12-29T08:00:46;11.98;;;4.53;;
64682;SDS011;51107;47.652;19.016;2023-12-29T08:03:15;11.35;;;6.93;;
64682;SDS011;51107;47.652;19.016;2023-12-29T08:05:44;10.77;;;6.00;;
64682;SDS011;51107;47.652;19.016;2023-12-29T08:08:13;10.02;;;5.30;;
64682;SDS011;51107;47.652;19.016;2023-12-29T08:10:42;14.82;;;6.40;;
64682;SDS011;51107;47.652;19.016;2023-12-29T08:13:11;15.85;;;7.68;;
64682;SDS011;51107;47.652;19.016;2023-12-29T08:15:39;16.87;;;7.18;;
64682;SDS011;51107;47.652;19.016;2023-12-29T08:18:07;9.02;;;5.65;;
64682;SDS011;51107;47.652;19.016;2023-12-29T08:20:36;12.98;;;6.70;;
64682;SDS011;51107;47.652;19.016;2023-12-29T08:23:04;15.93;;;8.35;;
64682;SDS011;51107;47.652;19.016;2023-12-29T08:25:32;14.55;;;7.60;;
64682;SDS011;51107;47.652;19.016;2023-12-29T08:28:00;24.35;;;10.35;;
64682;SDS011;51107;47.652;19.016;2023-12-29T08:30:29;21.70;;;10.05;;
64682;SDS011;51107;47.652;19.016;2023-12-29T08:32:57;19.98;;;9.73;;
64682;SDS011;51107;47.652;19.016;2023-12-29T08:35:26;20.23;;;10.98;;
64682;SDS011;51107;47.652;19.016;2023-12-29T08:37:54;29.10;;;11.80;;
64682;SDS011;51107;47.652;19.016;2023-12-29T08:40:22;18.00;;;8.27;;
64682;SDS011;51107;47.652;19.016;2023-12-29T08:42:50;24.02;;;8.70;;
64682;SDS011;51107;47.652;19.016;2023-12-29T08:45:18;21.60;;;10.13;;
64682;SDS011;51107;47.652;19.016;2023-12-29T08:47:47;18.80;;;9.57;;
64682;SDS011;51107;47.652;19.016;2023-12-29T08:50:15;27.70;;;10.60;;
64682;SDS011;51107;47.652;19.016;2023-12-29T08:52:44;19.50;;;10.57;;
64682;SDS011;51107;47.652;19.016;2023-12-29T08:55:13;32.83;;;10.25;;
64682;SDS011;51107;47.652;19.016;2023-12-29T08:57:41;26.23;;;8.27;;
64682;SDS011;51107;47.652;19.016;2023-12-29T09:00:09;15.68;;;8.90;;
64682;SDS011;51107;47.652;19.016;2023-12-29T09:02:38;15.07;;;7.70;;
64682;SDS011;51107;47.652;19.016;2023-12-29T09:05:06;15.35;;;6.57;;
64682;SDS011;51107;47.652;19.016;2023-12-29T09:07:35;11.68;;;5.32;;
64682;SDS011;51107;47.652;19.016;2023-12-29T09:10:04;11.05;;;3.83;;
64682;SDS011;51107;47.652;19.016;2023-12-29T09:12:36;7.78;;;5.32;;
64682;SDS011;51107;47.652;19.016;2023-12-29T09:15:05;15.00;;;6.72;;
64682;SDS011;51107;47.652;19.016;2023-12-29T09:17:34;10.52;;;5.87;;
64682;SDS011;51107;47.652;19.016;2023-12-29T09:20:02;9.43;;;4.25;;
64682;SDS011;51107;47.652;19.016;2023-12-29T09:22:38;9.18;;;4.10;;
64682;SDS011;51107;47.652;19.016;2023-12-29T09:25:06;13.73;;;6.90;;
64682;SDS011;51107;47.652;19.016;2023-12-29T09:27:34;10.93;;;5.53;;
64682;SDS011;51107;47.652;19.016;2023-12-29T09:30:03;11.98;;;5.93;;
64682;SDS011;51107;47.652;19.016;2023-12-29T09:32:32;14.45;;;6.18;;
64682;SDS011;51107;47.652;19.016;2023-12-29T09:35:01;9.23;;;5.43;;
64682;SDS011;51107;47.652;19.016;2023-12-29T09:37:29;15.88;;;6.32;;
64682;SDS011;51107;47.652;19.016;2023-12-29T09:39:57;9.30;;;4.12;;
64682;SDS011;51107;47.652;19.016;2023-12-29T09:42:25;10.52;;;5.62;;
64682;SDS011;51107;47.652;19.016;2023-12-29T09:44:56;14.40;;;6.35;;
64682;SDS011;51107;47.652;19.016;2023-12-29T09:47:29;14.35;;;6.78;;
64682;SDS011;51107;47.652;19.016;2023-12-29T09:50:02;10.05;;;5.57;;
64682;SDS011;51107;47.652;19.016;2023-12-29T09:52:32;14.48;;;7.43;;
64682;SDS011;51107;47.652;19.016;2023-12-29T09:55:02;12.20;;;7.12;;
64682;SDS011;51107;47.652;19.016;2023-12-29T09:57:31;9.40;;;6.30;;
64682;SDS011;51107;47.652;19.016;2023-12-29T10:00:00;14.82;;;6.15;;
64682;SDS011;51107;47.652;19.016;2023-12-29T10:02:37;12.52;;;6.82;;
64682;SDS011;51107;47.652;19.016;2023-12-29T10:05:07;9.25;;;4.80;;
64682;SDS011;51107;47.652;19.016;2023-12-29T10:07:37;11.88;;;5.32;;
64682;SDS011;51107;47.652;19.016;2023-12-29T10:10:06;7.25;;;4.03;;
64682;SDS011;51107;47.652;19.016;2023-12-29T10:12:35;14.50;;;6.30;;
64682;SDS011;51107;47.652;19.016;2023-12-29T10:15:09;12.15;;;5.47;;
64682;SDS011;51107;47.652;19.016;2023-12-29T10:23:15;18.60;;;9.20;;
64682;SDS011;51107;47.652;19.016;2023-12-29T10:25:47;11.55;;;5.25;;
64682;SDS011;51107;47.652;19.016;2023-12-29T10:28:16;14.23;;;6.22;;
64682;SDS011;51107;47.652;19.016;2023-12-29T10:30:47;10.88;;;5.60;;
64682;SDS011;51107;47.652;19.016;2023-12-29T10:33:19;12.10;;;6.62;;
64682;SDS011;51107;47.652;19.016;2023-12-29T10:35:58;13.40;;;6.40;;
64682;SDS011;51107;47.652;19.016;2023-12-29T10:38:31;15.52;;;7.75;;
64682;SDS011;51107;47.652;19.016;2023-12-29T10:41:18;13.80;;;6.57;;
64682;SDS011;51107;47.652;19.016;2023-12-29T10:43:47;9.48;;;4.87;;
64682;SDS011;51107;47.652;19.016;2023-12-29T10:46:19;9.23;;;4.95;;
64682;SDS011;51107;47.652;19.016;2023-12-29T10:48:49;16.52;;;6.45;;
64682;SDS011;51107;47.652;19.016;2023-12-29T10:51:17;12.15;;;6.20;;
64682;SDS011;51107;47.652;19.016;2023-12-29T10:53:55;11.10;;;5.72;;
64682;SDS011;51107;47.652;19.016;2023-12-29T10:56:26;13.27;;;6.37;;
64682;SDS011;51107;47.652;19.016;2023-12-29T10:59:02;12.35;;;6.30;;
64682;SDS011;51107;47.652;19.016;2023-12-29T11:01:34;10.30;;;5.55;;
64682;SDS011;51107;47.652;19.016;2023-12-29T11:04:04;13.77;;;6.43;;
64682;SDS011;51107;47.652;19.016;2023-12-29T11:06:40;11.52;;;6.43;;
64682;SDS011;51107;47.652;19.016;2023-12-29T11:09:11;10.30;;;6.22;;
64682;SDS011;51107;47.652;19.016;2023-12-29T11:11:39;13.77;;;7.57;;
64682;SDS011;51107;47.652;19.016;2023-12-29T11:14:09;15.80;;;7.05;;
64682;SDS011;51107;47.652;19.016;2023-12-29T11:16:39;6.85;;;3.97;;
64682;SDS011;51107;47.652;19.016;2023-12-29T11:19:08;13.38;;;6.87;;
64682;SDS011;51107;47.652;19.016;2023-12-29T11:21:39;12.00;;;7.60;;
64682;SDS011;51107;47.652;19.016;2023-12-29T11:24:10;18.67;;;9.02;;
64682;SDS011;51107;47.652;19.016;2023-12-29T11:26:41;17.37;;;7.80;;
64682;SDS011;51107;47.652;19.016;2023-12-29T11:29:11;25.95;;;9.13;;
64682;SDS011;51107;47.652;19.016;2023-12-29T11:31:39;18.17;;;7.30;;
64682;SDS011;51107;47.652;19.016;2023-12-29T11:34:20;16.20;;;8.43;;
64682;SDS011;51107;47.652;19.016;2023-12-29T11:37:07;22.70;;;9.18;;
64682;SDS011;51107;47.652;19.016;2023-12-29T11:39:51;17.10;;;8.05;;
64682;SDS011;51107;47.652;19.016;2023-12-29T11:42:30;25.52;;;10.30;;
64682;SDS011;51107;47.652;19.016;2023-12-29T11:45:23;18.17;;;8.30;;
64682;SDS011;51107;47.652;19.016;2023-12-29T11:47:55;16.30;;;7.60;;
64682;SDS011;51107;47.652;19.016;2023-12-29T11:50:37;14.13;;;7.15;;
64682;SDS011;51107;47.652;19.016;2023-12-29T11:53:09;17.30;;;8.43;;
64682;SDS011;51107;47.652;19.016;2023-12-29T11:56:00;17.40;;;6.70;;
64682;SDS011;51107;47.652;19.016;2023-12-29T11:58:29;15.23;;;8.85;;
64682;SDS011;51107;47.652;19.016;2023-12-29T12:00:57;19.67;;;9.68;;
64682;SDS011;51107;47.652;19.016;2023-12-29T12:03:27;21.75;;;10.27;;
64682;SDS011;51107;47.652;19.016;2023-12-29T12:05:59;18.30;;;9.38;;
64682;SDS011;51107;47.652;19.016;2023-12-29T12:08:35;19.95;;;10.65;;
64682;SDS011;51107;47.652;19.016;2023-12-29T12:13:57;20.27;;;10.05;;
64682;SDS011;51107;47.652;19.016;2023-12-29T12:19:13;23.45;;;9.18;;
64682;SDS011;51107;47.652;19.016;2023-12-29T12:21:42;28.62;;;11.20;;
64682;SDS011;51107;47.652;19.016;2023-12-29T12:24:14;19.02;;;9.63;;
64682;SDS011;51107;47.652;19.016;2023-12-29T12:26:43;19.98;;;9.65;;
64682;SDS011;51107;47.652;19.016;2023-12-29T12:29:12;31.42;;;11.15;;
64682;SDS011;51107;47.652;19.016;2023-12-29T12:31:57;24.95;;;12.05;;
64682;SDS011;51107;47.652;19.016;2023-12-29T12:34:25;24.42;;;8.65;;
64682;SDS011;51107;47.652;19.016;2023-12-29T12:36:54;19.50;;;10.40;;
64682;SDS011;51107;47.652;19.016;2023-12-29T12:39:38;18.77;;;9.68;;
64682;SDS011;51107;47.652;19.016;2023-12-29T12:42:09;21.83;;;10.48;;
64682;SDS011;51107;47.652;19.016;2023-12-29T12:44:38;23.15;;;9.23;;
64682;SDS011;51107;47.652;19.016;2023-12-29T12:47:10;20.70;;;10.30;;
64682;SDS011;51107;47.652;19.016;2023-12-29T12:49:46;23.33;;;9.52;;
64682;SDS011;51107;47.652;19.016;2023-12-29T12:52:15;30.90;;;12.75;;
64682;SDS011;51107;47.652;19.016;2023-12-29T12:54:43;25.27;;;11.77;;
64682;SDS011;51107;47.652;19.016;2023-12-29T12:57:12;24.27;;;11.98;;
64682;SDS011;51107;47.652;19.016;2023-12-29T12:59:40;23.75;;;11.40;;
64682;SDS011;51107;47.652;19.016;2023-12-29T13:02:09;28.98;;;12.63;;
64682;SDS011;51107;47.652;19.016;2023-12-29T13:04:39;29.75;;;13.15;;
64682;SDS011;51107;47.652;19.016;2023-12-29T13:07:08;29.23;;;14.50;;
64682;SDS011;51107;47.652;19.016;2023-12-29T13:09:37;28.10;;;11.70;;
64682;SDS011;51107;47.652;19.016;2023-12-29T13:12:09;25.73;;;11.75;;
64682;SDS011;51107;47.652;19.016;2023-12-29T13:14:40;26.05;;;11.73;;
64682;SDS011;51107;47.652;19.016;2023-12-29T13:17:10;19.75;;;10.30;;
64682;SDS011;51107;47.652;19.016;2023-12-29T13:19:42;25.73;;;10.45;;
64682;SDS011;51107;47.652;19.016;2023-12-29T13:22:12;40.05;;;15.40;;
64682;SDS011;51107;47.652;19.016;2023-12-29T13:24:43;29.85;;;13.75;;
64682;SDS011;51107;47.652;19.016;2023-12-29T13:27:13;28.85;;;12.75;;
64682;SDS011;51107;47.652;19.016;2023-12-29T13:29:42;27.42;;;12.55;;
64682;SDS011;51107;47.652;19.016;2023-12-29T13:32:13;19.42;;;9.23;;
64682;SDS011;51107;47.652;19.016;2023-12-29T13:35:01;19.83;;;10.25;;
64682;SDS011;51107;47.652;19.016;2023-12-29T13:40:10;69.47;;;15.00;;
64682;SDS011;51107;47.652;19.016;2023-12-29T13:42:45;24.05;;;11.30;;
64682;SDS011;51107;47.652;19.016;2023-12-29T13:45:15;22.95;;;11.23;;
64682;SDS011;51107;47.652;19.016;2023-12-29T13:47:46;20.55;;;9.70;;
64682;SDS011;51107;47.652;19.016;2023-12-29T13:50:14;19.48;;;9.65;;
64682;SDS011;51107;47.652;19.016;2023-12-29T13:52:42;22.95;;;10.27;;
64682;SDS011;51107;47.652;19.016;2023-12-29T13:55:10;22.52;;;10.00;;
64682;SDS011;51107;47.652;19.016;2023-12-29T13:57:38;18.25;;;9.88;;
64682;SDS011;51107;47.652;19.016;2023-12-29T14:00:17;22.95;;;9.80;;
64682;SDS011;51107;47.652;19.016;2023-12-29T14:02:45;21.87;;;9.88;;
64682;SDS011;51107;47.652;19.016;2023-12-29T14:05:19;29.83;;;9.45;;
64682;SDS011;51107;47.652;19.016;2023-12-29T14:07:55;23.50;;;10.20;;
64682;SDS011;51107;47.652;19.016;2023-12-29T14:10:31;22.52;;;10.98;;
64682;SDS011;51107;47.652;19.016;2023-12-29T14:13:16;21.48;;;10.75;;
64682;SDS011;51107;47.652;19.016;2023-12-29T14:15:45;18.15;;;8.85;;
64682;SDS011;51107;47.652;19.016;2023-12-29T14:24:06;29.48;;;10.27;;
64682;SDS011;51107;47.652;19.016;2023-12-29T14:26:35;25.70;;;10.52;;
64682;SDS011;51107;47.652;19.016;2023-12-29T14:29:07;20.25;;;10.50;;
64682;SDS011;51107;47.652;19.016;2023-12-29T14:31:41;28.42;;;10.85;;
64682;SDS011;51107;47.652;19.016;2023-12-29T14:34:10;24.27;;;10.82;;
64682;SDS011;51107;47.652;19.016;2023-12-29T14:36:40;32.28;;;12.80;;
64682;SDS011;51107;47.652;19.016;2023-12-29T14:39:09;25.62;;;12.30;;
64682;SDS011;51107;47.652;19.016;2023-12-29T14:41:39;29.45;;;14.10;;
64682;SDS011;51107;47.652;19.016;2023-12-29T14:44:07;26.35;;;13.43;;
64682;SDS011;51107;47.652;19.016;2023-12-29T14:46:36;33.15;;;15.05;;
64682;SDS011;51107;47.652;19.016;2023-12-29T14:49:04;32.88;;;13.07;;
64682;SDS011;51107;47.652;19.016;2023-12-29T14:51:33;25.98;;;11.82;;
64682;SDS011;51107;47.652;19.016;2023-12-29T14:54:01;32.28;;;14.23;;
64682;SDS011;51107;47.652;19.016;2023-12-29T14:56:31;26.87;;;12.80;;
64682;SDS011;51107;47.652;19.016;2023-12-29T14:58:59;29.37;;;14.85;;
64682;SDS011;51107;47.652;19.016;2023-12-29T15:01:27;36.80;;;16.00;;
64682;SDS011;51107;47.652;19.016;2023-12-29T15:03:56;35.83;;;13.90;;
64682;SDS011;51107;47.652;19.016;2023-12-29T15:06:24;33.40;;;17.65;;